Bricelyn, Minnesota
Current Conditions -  °F | °C
As of 2:53 PM on Sunday 23 Nov 2014 (Local Time) from KAEL Reporting Station
Haze Haze  
Wind Chill: 39°   Ceiling: 600
Heat Index: 45°   Visibility: 2.5mi
Dew Point: 45°   Wind: 10mph
Humidity: 100%   Direction: 320°NW
Pressure: 29.36"   Gusts: 16mph
Location:  43.56°N, 93.81°W
Report Text: KAEL 232053Z AUTO 32009G14KT 2 1/2SM BR OVC006 07/07 A2936 RMK AO2
Loading
Personal Weather Stations






























Interactive Weather Map New forecast layout! Learn more

10-Day Weather Forecast

Advertisements
Track Severe Weather on mobile